Terminal Aerodrome Forecast
Issued by NWS Chicago, IL

Home | Current Version | Previous Version | Graphics & Text | Print | Product List | Glossary On
Versions: 1 2 3 4 5 6 7 8 9 10 11 12 13 14 15 16 17 18 19 20 21 22 23 24 25 26 27 28 29 30 31 32
000
FTUS43 KLOT 271725
TAFRFD
TAF
KRFD 271725Z 2718/2818 23006KT P6SM SCT045 SCT250
      TEMPO 2718/2721 BKN045
     FM280200 12004KT P6SM BKN200
     FM281500 06007KT P6SM VCSH SCT030 BKN080 PROB30 2817/2818 4SM
      -TSRA BKN030CB=

USA.gov is the U.S. government's official web portal to all federal, state and local government web resources and services.